Disclaimer

    

CYCD

METAR CYCD 202200Z 35008KT 340V050 30SM SCT240 26/12 A3002 RMK CI4 SLP167 DENSITY ALT 1300FT=

METAR CYCD 202100Z 01007KT 30SM SCT240 26/13 A3003 RMK CI4 SLP171 DENSITY ALT 1300FT=

METAR CYCD 202000Z 02009KT 30SM SCT240 24/14 A3004 RMK CI3 SLP174 DENSITY ALT 1100FT=

TAF CYCD 201740Z 2018/2104 01008KT P6SM FEW040 SCT240 RMK NXT FCST BY 210000Z=

CYVR

METAR CYVR 202200Z 31012KT 25SM FEW170 SCT220 SCT240 22/17 A3001 RMK AC1CI3CS1 AC TR CS TR SLP165 DENSITY ALT 800FT=

METAR CYVR 202100Z 30015G20KT 25SM FEW160 FEW180 FEW200 FEW220 FEW240 21/16 A3002 RMK AC1AC1CI1CI2CS1 AC TR AC TR CI TR CS TR SLP168 DENSITY ALT 700FT=

METAR CYVR 202000Z 29015KT 25SM FEW160 FEW180 FEW200 FEW240 21/17 A3004 RMK AC1AC1CI1CI2 AC TR AC TR CI TR SLP173 DENSITY ALT 600FT=

TAF CYVR 202038Z 2021/2124 30015KT P6SM FEW200
FM210000 30012KT P6SM SKC BECMG 2107/2109 30015KT RMK NXT FCST BY 210000Z=

CYXX

METAR CYXX 202200Z 29003KT 260V050 30SM BKN260 30/09 A2997 RMK CI5 SLP150 DENSITY ALT 1900FT=

METAR CYXX 202100Z 06006KT 360V090 30SM BKN260 29/10 A2998 RMK CI5 SLP153 DENSITY ALT 1800FT=

METAR CYXX 202000Z 08010G16KT 050V110 30SM BKN260 28/11 A3000 RMK CI5 SLP160 DENSITY ALT 1600FT=

TAF CYXX 201740Z 2018/2118 04015G25KT P6SM FEW240 BECMG 2022/2024 25010KT
FM210600 VRB03KT P6SM SKC RMK NXT FCST BY 210000Z=

Supplemental information

Lower mainland ATIS: 1-877-517-2847

CZBB (Boundary Bay) current winds

Upper winds (Vancouver)

Data fromValid at300060009000
20120020180004080825+100810+10
20120021000012051413+131311+10
20120021120099001910+151913+08

NOTAMs

On October 10, 2019, NAV CANADA changed to the ICAO NOTAM format. They are now available only through Collaborative Flight Planning Services (CFPS) (plan.navcanada.ca). I'm working to update this site to pull in the relevant NOTAMs in the new format.